Wheeling Ohio County Airport
KHLG : now visible

Airfield :











YOU CAN JOIN US ON...

 
LOGIN :

Register | Disclaimer

   EN    FR    IT 

 









Legend :    VFR   Marginal VFR   IFR   Intensive IFR   Very Intensive IFR
Visi :
Ceiling :
>= 8 km
>= 3000ft
5 to 8 km
1000 to 3000 ft
1500m to 5 km
500 to 1000 ft
800 to 1500m
200 to 500 ft
< 800m
< 200 ft
Symbols :   Thunderstorms  Fog  Heavy snow  Heavy precipitations  Wind > 20 kt







- Airport Elevation : 1195 ft


KHLG - Wheeling Ohio County

CURRENT METAR :
  • 201953Z 25006KT 10SM SCT049 29/17 A3017 RMK AO2 SLP212 T02890167

EXPIRED METARs :
  • 201853Z VRB04KT 10SM CLR 27/16 A3019 RMK AO2 SLP218 T02720156
  • 201753Z 16006KT 10SM CLR 27/16 A3020 RMK AO2 SLP223 T02670161 10272 20144 58016

TAF KHLG
Valid from the 20 at 18:00 until the 21 at 18:00 UTC


201720Z 2018/2118 18005KT P6SM FEW050
FM210800 00000KT P6SM SCT090
FM211100 19003KT P6SM BKN025
FM211600 23006KT P6SM SCT035
No reported NOTAMs for that airfield.



MET'MAP, your aeronautical weather chart ! - Copyright ORBIFLY December 2007 - Disclaimer

ORBIFLY MET'MAP TEAM :

Programming & Development : Alexandra Zaïnal
Concept & Development : Baudouin d'Aumeries
Co-Development & Prog : Marc-Olivier Méhu
Technical & hardware support : Manuel Goepfert

Contact : metmap@orbifly.com




SOURCES & CREDITS :

   NOAA       Earth
Advisory